Time;durP1;ratioP1;P1;durP2;ratioP2;P2;SDS_P1;SDS_P2;PMS_P1;PMS_P2;Temp;Humidity;BMP_temperature;BMP_pressure;BME280_temperature;BME280_humidity;BME280_pressure;Samples;Min_cycle;Max_cycle;Signal;HPM_P1;HPM_P2
2021/04/20 00:00:16;;;;;;;26.20;18.40;;;5.50;99.90;;;;;;5091917;28;20298;-59
2021/04/20 00:02:43;;;;;;;28.13;19.43;;;5.50;99.90;;;;;;5091520;28;20204;-58
2021/04/20 00:05:13;;;;;;;25.57;18.47;;;5.60;99.90;;;;;;5091763;28;20725;-58
2021/04/20 00:07:39;;;;;;;24.23;17.97;;;5.80;99.90;;;;;;5091325;28;20212;-58
2021/04/20 00:10:07;;;;;;;25.93;17.83;;;5.80;99.90;;;;;;5091701;28;20220;-60
2021/04/20 00:12:34;;;;;;;25.57;17.73;;;5.80;99.90;;;;;;5093020;28;20223;-59
2021/04/20 00:15:01;;;;;;;25.67;17.83;;;5.80;99.90;;;;;;5093413;28;20204;-58
2021/04/20 00:17:27;;;;;;;25.93;18.20;;;5.80;99.90;;;;;;5093322;28;20208;-57
2021/04/20 00:19:53;;;;;;;24.47;17.67;;;5.90;99.90;;;;;;5093289;28;20228;-58
2021/04/20 00:22:19;;;;;;;22.53;16.70;;;5.90;99.90;;;;;;5092928;28;20204;-57
2021/04/20 00:24:45;;;;;;;23.43;16.67;;;5.90;99.90;;;;;;5092805;28;20649;-58
2021/04/20 00:27:12;;;;;;;25.20;17.73;;;6.00;99.90;;;;;;5093226;28;20212;-59
2021/04/20 00:29:38;;;;;;;25.00;17.23;;;5.90;99.90;;;;;;5092463;28;20219;-59
2021/04/20 00:32:06;;;;;;;24.43;17.67;;;5.80;99.90;;;;;;5090413;28;20232;-58
2021/04/20 00:34:32;;;;;;;25.43;17.97;;;5.70;99.90;;;;;;5091183;28;20204;-60
2021/04/20 00:36:58;;;;;;;23.50;17.40;;;5.50;99.90;;;;;;5091413;28;20648;-59
2021/04/20 00:39:25;;;;;;;22.13;16.73;;;5.40;99.90;;;;;;5091239;28;20231;-58
2021/04/20 00:42:00;;;;;;;22.13;17.07;;;5.20;99.90;;;;;;5090972;28;20588;-60
2021/04/20 00:44:26;;;;;;;25.33;17.93;;;5.10;99.90;;;;;;5090810;28;20204;-59
2021/04/20 00:46:52;;;;;;;24.37;17.80;;;4.90;99.90;;;;;;5090909;28;20742;-58
2021/04/20 00:49:20;;;;;;;26.77;19.30;;;4.90;99.90;;;;;;5090850;28;20211;-58
2021/04/20 00:51:46;;;;;;;25.97;18.20;;;4.80;99.90;;;;;;5091357;28;20224;-59
2021/04/20 00:54:12;;;;;;;22.50;17.47;;;4.80;99.90;;;;;;5091188;28;20690;-58
2021/04/20 00:56:38;;;;;;;23.47;17.67;;;4.70;99.90;;;;;;5091526;28;20212;-58
2021/04/20 00:59:04;;;;;;;25.20;18.43;;;4.70;99.90;;;;;;5090913;28;20232;-57
2021/04/20 01:01:31;;;;;;;26.80;19.77;;;4.80;99.90;;;;;;5090696;28;20224;-59
2021/04/20 01:03:58;;;;;;;26.40;19.87;;;4.90;99.90;;;;;;5090543;28;20200;-57
2021/04/20 01:06:25;;;;;;;25.50;18.17;;;5.00;99.90;;;;;;5091122;28;20204;-59
2021/04/20 01:08:51;;;;;;;24.87;17.97;;;5.20;99.90;;;;;;5090522;28;20580;-59
2021/04/20 01:11:20;;;;;;;27.60;19.90;;;5.30;99.90;;;;;;5090679;28;20228;-58
2021/04/20 01:13:47;;;;;;;27.90;19.97;;;5.40;99.90;;;;;;5090879;28;20211;-59
2021/04/20 01:16:14;;;;;;;23.37;17.30;;;5.40;99.90;;;;;;5090785;28;20205;-59
2021/04/20 01:18:40;;;;;;;25.70;18.03;;;5.40;99.90;;;;;;5090668;28;20231;-59
2021/04/20 01:21:09;;;;;;;27.37;18.97;;;5.40;99.90;;;;;;5090925;28;20224;-58
2021/04/20 01:23:51;;;;;;;21.33;17.23;;;5.50;99.90;;;;;;5090832;28;20229;-59
2021/04/20 01:26:19;;;;;;;24.90;18.00;;;5.40;99.90;;;;;;5091152;28;20204;-58
2021/04/20 01:28:46;;;;;;;23.93;17.60;;;5.40;99.90;;;;;;5090780;28;20196;-59
2021/04/20 01:31:12;;;;;;;23.63;18.53;;;5.30;99.90;;;;;;5090610;28;20224;-58
2021/04/20 01:33:40;;;;;;;27.97;18.47;;;5.10;99.90;;;;;;5090825;28;20208;-57
2021/04/20 01:36:07;;;;;;;25.47;18.20;;;5.00;99.90;;;;;;5091155;28;20200;-59
2021/04/20 01:38:33;;;;;;;33.20;18.87;;;5.00;99.90;;;;;;5090944;28;20235;-58
2021/04/20 01:40:59;;;;;;;29.40;19.70;;;4.90;99.90;;;;;;5091058;28;20228;-59
2021/04/20 01:43:27;;;;;;;27.83;18.33;;;4.90;99.90;;;;;;5091384;28;20200;-58
2021/04/20 01:45:53;;;;;;;27.23;19.17;;;4.90;99.90;;;;;;5094340;28;20204;-59
2021/04/20 01:48:20;;;;;;;36.67;18.20;;;4.90;99.90;;;;;;5094361;28;20200;-59
2021/04/20 01:50:46;;;;;;;32.47;17.93;;;4.90;99.90;;;;;;5094205;28;20220;-59
2021/04/20 01:53:12;;;;;;;21.87;18.43;;;4.80;99.90;;;;;;5094274;28;20230;-60
2021/04/20 01:55:40;;;;;;;25.10;19.27;;;4.80;99.90;;;;;;5093768;28;20208;-60
2021/04/20 01:58:07;;;;;;;27.13;19.37;;;4.90;99.90;;;;;;5093788;28;20227;-58
2021/04/20 02:00:37;;;;;;;25.23;19.20;;;4.90;99.90;;;;;;5093881;28;20224;-59
2021/04/20 02:03:04;;;;;;;23.97;18.93;;;4.80;99.90;;;;;;5094048;28;20200;-58
2021/04/20 02:05:31;;;;;;;25.73;18.20;;;4.80;99.90;;;;;;5093902;28;20250;-59
2021/04/20 02:07:57;;;;;;;25.40;19.37;;;4.80;99.90;;;;;;5093790;28;20582;-58
2021/04/20 02:10:24;;;;;;;26.27;18.90;;;4.80;99.90;;;;;;5094012;28;20243;-59
2021/04/20 02:12:50;;;;;;;39.57;19.00;;;4.80;99.90;;;;;;5093799;28;20257;-59
2021/04/20 02:15:17;;;;;;;38.60;20.33;;;4.90;99.90;;;;;;5093784;28;20208;-59
2021/04/20 02:17:45;;;;;;;26.87;20.67;;;4.90;99.90;;;;;;5093636;28;20305;-60
2021/04/20 02:20:13;;;;;;;34.80;19.30;;;5.00;99.90;;;;;;5093604;28;20235;-58
2021/04/20 02:22:41;;;;;;;34.03;20.67;;;5.00;99.90;;;;;;5093499;28;20257;-58
2021/04/20 02:25:10;;;;;;;30.23;20.93;;;5.00;99.90;;;;;;5093899;28;20210;-60
2021/04/20 02:27:36;;;;;;;29.23;20.77;;;4.90;99.90;;;;;;5093451;28;20215;-59
2021/04/20 02:30:05;;;;;;;83.20;20.77;;;4.90;99.90;;;;;;5093644;28;20229;-59
2021/04/20 02:32:32;;;;;;;62.47;18.87;;;4.90;99.90;;;;;;5093344;28;20686;-58
2021/04/20 02:35:00;;;;;;;34.30;19.93;;;4.80;99.90;;;;;;5093563;28;20207;-58
2021/04/20 02:37:27;;;;;;;31.70;19.73;;;4.70;99.90;;;;;;5093464;28;20680;-60
2021/04/20 02:39:53;;;;;;;48.30;20.03;;;4.70;99.90;;;;;;5093017;28;20232;-58
2021/04/20 02:42:20;;;;;;;37.50;20.47;;;4.60;99.90;;;;;;5093550;28;20212;-59
2021/04/20 02:44:46;;;;;;;30.90;21.03;;;4.60;99.90;;;;;;5093303;28;20246;-59
2021/04/20 02:47:12;;;;;;;31.33;22.20;;;4.60;99.90;;;;;;5093304;28;20291;-61
2021/04/20 02:49:39;;;;;;;32.13;21.13;;;4.60;99.90;;;;;;5092982;28;20277;-59
2021/04/20 02:52:06;;;;;;;33.53;22.37;;;4.70;99.90;;;;;;5093056;28;20224;-59
2021/04/20 02:54:33;;;;;;;30.17;22.07;;;4.70;99.90;;;;;;5092644;28;20231;-59
2021/04/20 02:57:02;;;;;;;29.43;21.70;;;4.80;99.90;;;;;;5092708;28;20212;-60
2021/04/20 02:59:30;;;;;;;28.03;20.80;;;4.80;99.90;;;;;;5092752;28;20594;-58
2021/04/20 03:01:59;;;;;;;34.90;21.57;;;4.80;99.90;;;;;;5092946;28;20224;-58
2021/04/20 03:04:26;;;;;;;44.57;20.80;;;4.80;99.90;;;;;;5092670;28;20253;-58
2021/04/20 03:06:52;;;;;;;49.40;20.53;;;4.80;99.90;;;;;;5092849;28;20200;-59
2021/04/20 03:09:19;;;;;;;50.43;21.33;;;4.80;99.90;;;;;;5092536;28;20621;-59
2021/04/20 03:11:55;;;;;;;81.40;20.63;;;4.80;99.90;;;;;;5093079;28;20259;-60
2021/04/20 03:14:22;;;;;;;43.57;21.00;;;4.70;99.90;;;;;;5092418;28;20577;-60
2021/04/20 03:16:49;;;;;;;54.73;21.73;;;4.70;99.90;;;;;;5092406;28;20215;-59
2021/04/20 03:19:17;;;;;;;58.30;20.63;;;4.80;99.90;;;;;;5092222;28;20764;-61
2021/04/20 03:21:43;;;;;;;41.13;21.73;;;4.80;99.90;;;;;;5092248;28;20738;-60
2021/04/20 03:24:35;;;;;;;36.90;21.10;;;4.80;99.90;;;;;;5092220;28;20706;-60
2021/04/20 03:27:01;;;;;;;38.73;21.67;;;4.80;99.90;;;;;;5092315;28;20204;-60
2021/04/20 03:29:28;;;;;;;32.40;21.20;;;4.80;99.90;;;;;;5092096;28;20196;-60
2021/04/20 03:31:54;;;;;;;30.47;20.40;;;4.80;99.90;;;;;;5092162;28;20289;-60
2021/04/20 03:34:25;;;;;;;31.67;21.97;;;4.80;99.90;;;;;;5092068;28;20200;-60
2021/04/20 03:36:55;;;;;;;29.93;21.23;;;4.80;99.90;;;;;;5092448;28;20208;-61
2021/04/20 03:39:23;;;;;;;57.47;21.37;;;4.80;99.90;;;;;;5092118;28;20755;-60
2021/04/20 03:41:55;;;;;;;56.37;22.07;;;4.80;99.90;;;;;;5092246;28;20235;-60
2021/04/20 03:44:26;;;;;;;40.80;21.23;;;4.80;99.90;;;;;;5091936;28;20209;-60
2021/04/20 03:46:57;;;;;;;33.07;20.93;;;4.90;99.90;;;;;;5092285;28;20265;-60
2021/04/20 03:49:27;;;;;;;29.70;20.57;;;4.90;99.90;;;;;;5092053;28;20200;-60
2021/04/20 03:51:56;;;;;;;31.60;21.63;;;5.00;99.90;;;;;;5091874;28;20220;-60
2021/04/20 03:54:25;;;;;;;28.57;18.73;;;5.00;99.90;;;;;;5091627;28;20694;-60
2021/04/20 03:56:54;;;;;;;31.00;18.83;;;5.10;99.90;;;;;;5091659;28;20208;-59
2021/04/20 03:59:23;;;;;;;28.73;18.63;;;5.10;99.90;;;;;;5091847;28;20224;-59
2021/04/20 04:01:51;;;;;;;28.33;18.90;;;5.00;99.90;;;;;;5091542;28;20574;-60
2021/04/20 04:04:21;;;;;;;28.30;18.37;;;5.00;99.90;;;;;;5091715;28;20231;-60
2021/04/20 04:06:48;;;;;;;30.77;19.80;;;5.00;99.90;;;;;;5090872;28;20277;-60
2021/04/20 04:09:18;;;;;;;25.63;18.80;;;5.00;99.90;;;;;;5091368;28;20204;-60
2021/04/20 04:11:48;;;;;;;27.93;19.77;;;4.90;99.90;;;;;;5091218;28;20746;-60
2021/04/20 04:14:17;;;;;;;27.43;18.83;;;4.90;99.90;;;;;;5091369;28;20230;-60
2021/04/20 04:16:46;;;;;;;43.53;19.07;;;4.80;99.90;;;;;;5091615;28;20204;-60
2021/04/20 04:19:14;;;;;;;31.20;18.70;;;4.80;99.90;;;;;;5091248;28;20259;-60
2021/04/20 04:21:45;;;;;;;30.77;19.50;;;4.80;99.90;;;;;;5090982;28;20687;-60
2021/04/20 04:24:13;;;;;;;62.77;18.90;;;4.90;99.90;;;;;;5091199;28;20215;-60
2021/04/20 04:26:45;;;;;;;28.30;19.63;;;4.90;99.90;;;;;;5091350;28;20260;-60
2021/04/20 04:29:14;;;;;;;56.20;20.13;;;4.90;99.90;;;;;;5091387;28;20211;-60
2021/04/20 04:31:43;;;;;;;89.17;19.23;;;5.00;99.90;;;;;;5091034;28;20228;-60
2021/04/20 04:34:10;;;;;;;49.17;20.67;;;5.00;99.90;;;;;;5091181;28;20204;-60
2021/04/20 04:36:37;;;;;;;47.70;19.40;;;5.10;99.90;;;;;;5090976;28;20204;-60
2021/04/20 04:39:04;;;;;;;32.93;21.80;;;5.20;99.90;;;;;;5091485;28;20231;-60
2021/04/20 04:41:30;;;;;;;44.37;20.83;;;5.20;99.90;;;;;;5091276;28;20235;-60
2021/04/20 04:43:56;;;;;;;46.10;19.03;;;5.30;99.90;;;;;;5091112;28;20208;-60
2021/04/20 04:46:24;;;;;;;28.10;20.10;;;5.40;99.90;;;;;;5091255;28;20220;-60
2021/04/20 04:48:52;;;;;;;28.67;20.87;;;5.50;99.90;;;;;;5091471;28;20208;-60
2021/04/20 04:51:20;;;;;;;35.67;17.70;;;5.50;99.90;;;;;;5090775;28;20281;-60
2021/04/20 04:53:47;;;;;;;25.83;18.00;;;5.60;99.90;;;;;;5090765;28;20200;-58
2021/04/20 04:56:14;;;;;;;34.30;18.60;;;5.60;99.90;;;;;;5090982;28;20466;-59
2021/04/20 04:58:42;;;;;;;25.83;17.20;;;5.60;99.90;;;;;;5090782;28;20231;-62
2021/04/20 05:01:13;;;;;;;26.30;16.60;;;5.70;99.90;;;;;;5091021;28;20233;-60
2021/04/20 05:03:40;;;;;;;26.33;18.03;;;5.80;99.90;;;;;;5090539;28;20204;-59
2021/04/20 05:06:07;;;;;;;25.20;18.53;;;5.80;99.90;;;;;;5090984;28;20201;-59
2021/04/20 05:08:33;;;;;;;31.77;16.80;;;6.00;99.90;;;;;;5090991;28;20204;-60
2021/04/20 05:11:03;;;;;;;32.47;16.40;;;6.10;99.90;;;;;;5090764;28;20243;-59
2021/04/20 05:13:30;;;;;;;20.37;15.97;;;6.20;99.90;;;;;;5090780;28;20736;-61
2021/04/20 05:15:56;;;;;;;23.33;16.50;;;6.20;99.90;;;;;;5090639;28;20204;-60
2021/04/20 05:18:26;;;;;;;21.63;17.47;;;6.20;99.90;;;;;;5091633;28;20246;-60
2021/04/20 05:20:53;;;;;;;37.97;15.50;;;6.20;99.90;;;;;;5094771;28;20238;-60
2021/04/20 05:23:20;;;;;;;98.13;16.67;;;6.30;99.90;;;;;;5094780;28;20204;-60
2021/04/20 05:25:46;;;;;;;58.27;14.83;;;6.40;99.90;;;;;;5094569;28;20259;-60
2021/04/20 05:28:12;;;;;;;81.40;15.47;;;6.50;99.90;;;;;;5094480;28;20226;-60
2021/04/20 05:30:38;;;;;;;33.20;15.70;;;6.50;99.90;;;;;;5094475;28;20230;-60
2021/04/20 05:33:05;;;;;;;37.33;16.50;;;6.60;99.90;;;;;;5095014;28;20227;-60
2021/04/20 05:35:31;;;;;;;35.00;17.47;;;6.70;99.90;;;;;;5094757;28;20683;-60
2021/04/20 05:37:58;;;;;;;79.20;17.60;;;6.90;99.90;;;;;;5094358;28;20213;-60
2021/04/20 05:40:27;;;;;;;51.13;15.73;;;7.10;99.90;;;;;;5094282;28;20264;-59
2021/04/20 05:42:54;;;;;;;20.17;16.10;;;7.20;99.90;;;;;;5094242;28;20204;-59
2021/04/20 05:45:20;;;;;;;35.17;15.70;;;7.60;99.90;;;;;;5093908;28;20208;-60
2021/04/20 05:47:49;;;;;;;20.80;16.50;;;7.90;99.90;;;;;;5094387;28;20208;-60
2021/04/20 05:50:19;;;;;;;35.87;15.73;;;8.10;99.90;;;;;;5094184;28;20274;-60
2021/04/20 05:52:45;;;;;;;25.00;16.10;;;8.40;99.90;;;;;;5094027;28;20201;-60
2021/04/20 05:55:13;;;;;;;20.20;15.37;;;8.60;99.90;;;;;;5093941;28;20215;-60
2021/04/20 05:57:40;;;;;;;23.33;13.50;;;8.90;99.90;;;;;;5094008;28;20215;-60
2021/04/20 06:00:08;;;;;;;17.30;13.50;;;9.00;99.90;;;;;;5093811;28;20274;-60
2021/04/20 06:02:36;;;;;;;25.57;12.97;;;8.90;99.90;;;;;;5094147;28;20204;-60
2021/04/20 06:05:07;;;;;;;21.23;12.13;;;8.90;99.90;;;;;;5094159;28;20208;-60
2021/04/20 06:07:35;;;;;;;26.63;13.50;;;8.90;99.90;;;;;;5093869;28;20265;-60
2021/04/20 06:10:04;;;;;;;20.63;12.40;;;9.00;99.90;;;;;;5093345;28;20239;-60
2021/04/20 06:12:32;;;;;;;18.97;14.67;;;9.00;99.90;;;;;;5093524;28;20207;-60
2021/04/20 06:14:59;;;;;;;19.80;14.60;;;9.00;99.90;;;;;;5094677;28;20211;-60
2021/04/20 06:17:26;;;;;;;18.30;15.20;;;9.40;99.90;;;;;;5093752;28;20215;-60
2021/04/20 06:19:52;;;;;;;19.10;15.20;;;9.70;99.90;;;;;;5093328;28;20227;-60
2021/04/20 06:22:20;;;;;;;22.13;14.33;;;10.00;99.90;;;;;;5093388;28;20219;-59
2021/04/20 06:24:46;;;;;;;20.17;13.90;;;10.40;99.90;;;;;;5092957;28;20687;-59
2021/04/20 06:27:14;;;;;;;17.03;15.10;;;10.60;99.90;;;;;;5093254;28;20200;-59
2021/04/20 06:29:41;;;;;;;22.03;16.03;;;10.70;99.90;;;;;;5092587;28;20207;-60
2021/04/20 06:32:10;;;;;;;16.03;13.20;;;10.70;99.90;;;;;;5093454;28;20200;-60
2021/04/20 06:34:37;;;;;;;16.63;12.87;;;10.60;99.90;;;;;;5093571;28;20299;-60
2021/04/20 06:37:06;;;;;;;14.93;12.57;;;10.60;99.90;;;;;;5093608;28;20207;-60
2021/04/20 06:39:32;;;;;;;15.93;11.87;;;10.80;99.90;;;;;;5093175;28;20666;-60
2021/04/20 06:42:00;;;;;;;17.43;11.50;;;10.80;99.90;;;;;;5093468;28;20224;-60
2021/04/20 06:44:32;;;;;;;14.67;11.13;;;10.80;99.90;;;;;;5093549;28;20230;-59
2021/04/20 06:47:08;;;;;;;14.77;11.00;;;11.10;99.90;;;;;;5092859;28;20210;-59
2021/04/20 06:49:42;;;;;;;19.67;10.93;;;11.60;99.90;;;;;;5092923;28;20220;-60
2021/04/20 06:52:14;;;;;;;18.03;11.90;;;12.40;99.90;;;;;;5092889;28;20633;-59
2021/04/20 06:54:47;;;;;;;14.57;11.07;;;13.00;99.90;;;;;;5092962;28;20272;-59
2021/04/20 06:57:16;;;;;;;14.30;10.53;;;13.70;99.00;;;;;;5093030;28;20207;-59
2021/04/20 06:59:48;;;;;;;14.93;10.90;;;14.20;96.70;;;;;;5092535;28;20220;-60
2021/04/20 07:02:24;;;;;;;13.27;11.30;;;14.40;96.30;;;;;;5092724;28;20230;-60
2021/04/20 07:04:54;;;;;;;14.17;10.80;;;14.60;96.10;;;;;;5092845;28;20204;-60
2021/04/20 07:07:34;;;;;;;14.00;10.30;;;14.90;95.20;;;;;;5093015;28;20208;-60
2021/04/20 07:10:05;;;;;;;12.40;10.47;;;15.00;94.60;;;;;;5092531;28;20212;-59
2021/04/20 07:12:33;;;;;;;14.60;10.80;;;15.10;94.70;;;;;;5092502;28;20694;-60
2021/04/20 07:15:02;;;;;;;12.67;11.07;;;15.50;94.50;;;;;;5092586;28;20235;-60
2021/04/20 07:17:44;;;;;;;14.80;11.67;;;16.60;93.20;;;;;;5092797;28;20212;-59
2021/04/20 07:20:25;;;;;;;11.77;10.57;;;17.80;90.30;;;;;;5092469;28;20232;-60
2021/04/20 07:23:27;;;;;;;12.50;11.20;;;18.50;88.60;;;;;;5092474;28;20208;-60
2021/04/20 07:26:23;;;;;;;12.50;11.20;;;18.20;87.10;;;;;;5092568;28;20203;-60
2021/04/20 07:28:57;;;;;;;12.73;10.97;;;18.20;87.70;;;;;;5092404;28;20211;-59
2021/04/20 07:31:35;;;;;;;15.70;11.50;;;18.90;85.50;;;;;;5092002;28;20231;-59
2021/04/20 07:34:15;;;;;;;13.48;10.88;;;20.00;82.70;;;;;;5092435;28;20211;-59
2021/04/20 07:37:04;;;;;;;15.90;11.40;;;21.50;78.10;;;;;;5092307;28;20283;-60
2021/04/20 07:39:35;;;;;;;14.23;11.07;;;22.50;73.90;;;;;;5091993;28;20228;-60
2021/04/20 07:42:07;;;;;;;12.98;11.70;;;23.90;68.70;;;;;;5091689;28;20224;-60
2021/04/20 07:44:45;;;;;;;14.23;12.52;;;25.00;64.70;;;;;;5092130;28;20236;-60
2021/04/20 07:47:13;;;;;;;14.57;12.15;;;25.20;62.30;;;;;;5092279;28;20208;-60
2021/04/20 07:49:46;;;;;;;17.10;13.30;;;24.90;61.20;;;;;;5091922;28;20200;-59
2021/04/20 07:52:17;;;;;;;14.10;12.60;;;24.50;60.90;;;;;;5091751;28;20253;-60
2021/04/20 07:54:51;;;;;;;14.13;12.15;;;23.60;61.70;;;;;;5091913;28;20389;-59
2021/04/20 07:57:24;;;;;;;15.00;12.68;;;22.30;64.60;;;;;;5092049;28;20224;-60
2021/04/20 07:59:58;;;;;;;15.32;13.32;;;20.50;69.50;;;;;;5091238;28;20691;-60
2021/04/20 08:02:40;;;;;;;17.42;14.48;;;19.00;74.20;;;;;;5091770;28;20203;-60
2021/04/20 08:05:16;;;;;;;15.50;13.73;;;18.20;77.50;;;;;;5091741;28;20200;-59
2021/04/20 08:07:47;;;;;;;16.60;13.57;;;18.00;79.70;;;;;;5091369;28;20223;-58
2021/04/20 08:10:15;;;;;;;18.73;14.47;;;17.90;80.80;;;;;;5091098;28;20642;-61
2021/04/20 08:12:50;;;;;;;18.17;14.67;;;17.60;82.80;;;;;;5091328;28;20212;-60
2021/04/20 08:15:24;;;;;;;17.10;14.60;;;18.50;81.90;;;;;;5090986;28;20211;-61
2021/04/20 08:18:00;;;;;;;22.02;15.18;;;19.90;78.50;;;;;;5090960;28;20204;-60
2021/04/20 08:20:28;;;;;;;18.25;15.07;;;21.00;75.50;;;;;;5091174;28;20277;-60
2021/04/20 08:22:57;;;;;;;22.73;15.70;;;21.10;74.10;;;;;;5091133;28;20216;-60
2021/04/20 08:25:25;;;;;;;21.25;16.65;;;20.50;74.40;;;;;;5090950;28;20211;-59
2021/04/20 08:27:57;;;;;;;22.38;17.52;;;19.70;76.00;;;;;;5091219;28;20208;-59
2021/04/20 08:30:30;;;;;;;20.23;18.00;;;18.60;79.50;;;;;;5091183;28;20224;-59
2021/04/20 08:32:58;;;;;;;26.87;18.73;;;17.70;83.30;;;;;;5091138;28;20200;-59
2021/04/20 08:35:28;;;;;;;23.63;18.57;;;17.40;84.20;;;;;;5091090;28;20211;-60
2021/04/20 08:38:06;;;;;;;25.60;18.80;;;17.30;84.80;;;;;;5090837;28;20204;-60
2021/04/20 08:40:41;;;;;;;26.00;18.43;;;17.20;85.60;;;;;;5090716;28;20356;-60
2021/04/20 08:43:20;;;;;;;21.73;18.00;;;17.30;86.30;;;;;;5090830;28;20210;-60
2021/04/20 08:45:54;;;;;;;22.27;18.57;;;17.20;85.70;;;;;;5090929;28;20294;-60
2021/04/20 08:48:34;;;;;;;22.23;18.47;;;17.20;86.80;;;;;;5090839;28;20212;-60
2021/04/20 08:51:08;;;;;;;21.40;17.43;;;17.10;87.30;;;;;;5091654;28;20382;-60
2021/04/20 08:53:49;;;;;;;20.30;17.37;;;17.20;86.10;;;;;;5092226;28;20219;-60
2021/04/20 08:56:24;;;;;;;23.13;17.97;;;17.10;86.70;;;;;;5095383;28;20211;-61
2021/04/20 08:59:19;;;;;;;22.87;18.40;;;17.10;87.10;;;;;;5095124;28;20224;-61
2021/04/20 09:02:10;;;;;;;23.10;16.87;;;17.00;87.40;;;;;;5095242;28;20220;-61
2021/04/20 09:04:54;;;;;;;20.00;16.50;;;17.00;87.70;;;;;;5095156;28;20261;-61
2021/04/20 09:07:31;;;;;;;20.27;16.53;;;16.80;88.20;;;;;;5094746;28;20736;-60
2021/04/20 09:10:04;;;;;;;21.70;19.40;;;16.70;88.60;;;;;;5091674;28;20448;-61
2021/04/20 09:12:34;;;;;;;21.00;17.63;;;16.30;90.10;;;;;;5095101;28;20207;-60
2021/04/20 09:15:02;;;;;;;20.93;18.07;;;16.10;90.50;;;;;;5094457;28;20207;-60
2021/04/20 09:17:32;;;;;;;21.03;18.53;;;16.10;90.70;;;;;;5094196;28;20208;-62
2021/04/20 09:20:05;;;;;;;21.13;18.20;;;16.30;90.40;;;;;;5093437;28;20243;-60
2021/04/20 09:22:48;;;;;;;20.63;17.43;;;16.60;90.10;;;;;;5094262;28;20204;-60
2021/04/20 09:25:19;;;;;;;20.47;17.73;;;16.90;88.80;;;;;;5094588;28;20303;-61
2021/04/20 09:27:52;;;;;;;21.03;17.13;;;17.20;88.40;;;;;;5093967;28;20683;-61
2021/04/20 09:30:20;;;;;;;22.57;17.93;;;17.60;87.00;;;;;;5093922;28;20727;-61
2021/04/20 09:32:52;;;;;;;19.70;16.37;;;17.90;86.50;;;;;;5094248;28;20211;-62
2021/04/20 09:35:18;;;;;;;20.20;15.67;;;17.60;86.90;;;;;;5093580;28;20201;-59
2021/04/20 09:37:47;;;;;;;19.80;16.10;;;17.30;86.40;;;;;;5093912;28;20254;-62
2021/04/20 09:40:15;;;;;;;18.63;15.80;;;17.00;87.20;;;;;;5094036;28;20239;-61
2021/04/20 09:42:42;;;;;;;19.67;15.73;;;16.80;87.90;;;;;;5093705;28;20212;-61
2021/04/20 09:45:14;;;;;;;20.10;16.30;;;16.90;87.70;;;;;;5093994;28;20204;-61
2021/04/20 09:48:10;;;;;;;19.93;15.93;;;16.90;87.60;;;;;;5093995;28;20675;-62
2021/04/20 09:50:45;;;;;;;18.57;15.37;;;17.00;88.20;;;;;;5093641;28;20305;-61
2021/04/20 09:53:23;;;;;;;20.20;16.13;;;17.30;87.20;;;;;;5093490;28;20238;-61
2021/04/20 09:55:56;;;;;;;19.07;15.33;;;17.50;86.80;;;;;;5093864;28;20587;-61
2021/04/20 09:58:24;;;;;;;19.17;15.10;;;17.70;86.40;;;;;;5093546;28;20211;-61
2021/04/20 10:00:51;;;;;;;17.57;15.57;;;18.00;85.20;;;;;;5093645;28;20228;-62
2021/04/20 10:03:39;;;;;;;17.07;14.97;;;18.30;83.90;;;;;;5093643;28;20231;-62
2021/04/20 10:06:26;;;;;;;15.50;13.57;;;18.60;81.90;;;;;;5093643;28;20205;-60
2021/04/20 10:09:06;;;;;;;16.23;13.77;;;18.90;79.80;;;;;;5093130;28;20739;-60
2021/04/20 10:11:45;;;;;;;18.47;15.37;;;19.00;79.70;;;;;;5093635;28;20231;-60
2021/04/20 10:14:26;;;;;;;18.60;14.13;;;18.60;79.40;;;;;;5093243;28;20214;-60
2021/04/20 10:17:04;;;;;;;15.57;13.13;;;18.60;79.50;;;;;;5094058;28;20219;-61
2021/04/20 10:19:37;;;;;;;16.40;12.73;;;18.60;78.60;;;;;;5093196;28;20227;-60
2021/04/20 10:22:24;;;;;;;16.97;13.40;;;18.60;79.10;;;;;;5092889;28;20228;-60
2021/04/20 10:25:03;;;;;;;17.17;14.17;;;18.60;78.20;;;;;;5093154;28;20219;-60
2021/04/20 10:27:35;;;;;;;14.37;11.87;;;18.70;79.50;;;;;;5093293;28;20212;-60
2021/04/20 10:30:06;;;;;;;15.30;13.05;;;18.90;77.90;;;;;;5093012;28;20196;-60
2021/04/20 10:32:34;;;;;;;17.92;13.50;;;19.20;76.80;;;;;;5093093;28;20212;-60
2021/04/20 10:35:03;;;;;;;16.13;13.73;;;19.50;76.10;;;;;;5092538;28;20745;-60
2021/04/20 10:37:34;;;;;;;15.35;13.57;;;19.80;75.10;;;;;;5092987;28;20207;-60
2021/04/20 10:40:03;;;;;;;14.70;13.10;;;20.00;74.50;;;;;;5092948;28;20231;-60
2021/04/20 10:42:30;;;;;;;15.50;13.77;;;20.10;73.40;;;;;;5092967;28;20200;-60
2021/04/20 10:44:58;;;;;;;16.63;13.27;;;20.40;72.50;;;;;;5092546;28;20204;-60
2021/04/20 10:47:25;;;;;;;15.05;12.75;;;20.70;72.10;;;;;;5092271;28;20208;-62
2021/04/20 10:49:54;;;;;;;15.18;12.55;;;21.10;70.30;;;;;;5092767;28;20196;-60
2021/04/20 10:52:22;;;;;;;20.95;16.00;;;21.40;68.30;;;;;;5092608;28;20715;-61
2021/04/20 10:54:49;;;;;;;15.10;11.85;;;21.40;68.80;;;;;;5092767;28;20208;-64
2021/04/20 10:57:17;;;;;;;16.33;12.52;;;21.40;68.10;;;;;;5092537;28;20591;-61
2021/04/20 10:59:50;;;;;;;14.30;12.75;;;21.50;67.50;;;;;;5092004;28;20224;-61
2021/04/20 11:02:21;;;;;;;17.33;12.73;;;21.60;67.50;;;;;;5092517;28;20230;-60
2021/04/20 11:04:49;;;;;;;14.85;12.15;;;21.50;66.60;;;;;;5092244;28;20215;-59
2021/04/20 11:07:21;;;;;;;14.18;11.80;;;21.00;67.30;;;;;;5092150;28;20208;-59
2021/04/20 11:09:54;;;;;;;15.45;12.32;;;20.20;69.00;;;;;;5092001;28;20204;-60
2021/04/20 11:12:22;;;;;;;14.82;12.93;;;19.60;70.90;;;;;;5091962;28;20227;-61
2021/04/20 11:14:51;;;;;;;15.27;13.57;;;19.30;72.20;;;;;;5092220;28;20209;-61
2021/04/20 11:17:27;;;;;;;16.88;14.30;;;18.90;73.50;;;;;;5091640;28;20231;-61
2021/04/20 11:19:59;;;;;;;14.85;12.98;;;18.30;75.00;;;;;;5091970;28;20341;-61
2021/04/20 11:22:31;;;;;;;14.10;12.60;;;18.20;75.80;;;;;;5091597;28;20672;-60
2021/04/20 11:25:00;;;;;;;16.33;13.65;;;18.20;74.90;;;;;;5091678;28;20205;-60
2021/04/20 11:27:32;;;;;;;16.20;14.00;;;18.30;74.50;;;;;;5091971;28;20204;-60
2021/04/20 11:30:06;;;;;;;16.38;13.10;;;18.30;73.90;;;;;;5091936;28;20197;-59
2021/04/20 11:32:34;;;;;;;15.47;12.87;;;18.40;74.50;;;;;;5091939;28;20231;-60
2021/04/20 11:35:06;;;;;;;15.60;12.77;;;18.50;73.70;;;;;;5092094;28;20254;-61
2021/04/20 11:37:35;;;;;;;15.65;12.43;;;18.70;73.00;;;;;;5091690;28;20239;-61
2021/04/20 11:40:05;;;;;;;16.70;14.20;;;18.90;71.90;;;;;;5091946;28;20330;-61
2021/04/20 11:42:40;;;;;;;14.32;12.10;;;19.20;71.20;;;;;;5091758;28;20656;-61
2021/04/20 11:45:15;;;;;;;13.43;11.50;;;19.60;70.80;;;;;;5091408;28;20210;-62
2021/04/20 11:47:58;;;;;;;13.40;10.80;;;19.90;68.50;;;;;;5091139;28;20204;-60
2021/04/20 11:50:27;;;;;;;12.77;11.40;;;20.00;67.60;;;;;;5091738;28;20231;-61
2021/04/20 11:52:59;;;;;;;16.33;12.45;;;20.10;67.70;;;;;;5091655;28;20234;-61
2021/04/20 11:55:34;;;;;;;14.30;12.70;;;20.30;68.00;;;;;;5091486;28;20585;-62
2021/04/20 11:58:04;;;;;;;17.83;13.13;;;20.60;68.70;;;;;;5091300;28;20215;-60
2021/04/20 12:00:33;;;;;;;13.35;11.63;;;20.70;68.40;;;;;;5091598;28;20236;-60
2021/04/20 12:03:09;;;;;;;16.90;12.55;;;20.80;68.40;;;;;;5091465;28;20224;-60
2021/04/20 12:05:36;;;;;;;13.15;11.77;;;21.00;67.80;;;;;;5091182;28;20208;-61
2021/04/20 12:08:05;;;;;;;13.70;11.32;;;21.30;65.40;;;;;;5091141;28;20572;-59
2021/04/20 12:10:32;;;;;;;16.75;14.20;;;21.60;64.00;;;;;;5091048;28;20239;-59
2021/04/20 12:12:59;;;;;;;13.25;11.65;;;21.70;65.10;;;;;;5091087;28;20215;-59
2021/04/20 12:15:28;;;;;;;16.63;11.98;;;21.80;65.40;;;;;;5091046;28;20664;-59
2021/04/20 12:17:55;;;;;;;13.00;11.65;;;21.90;63.40;;;;;;5090897;28;20231;-60
2021/04/20 12:20:25;;;;;;;13.63;10.85;;;21.90;63.50;;;;;;5090735;28;20711;-59
2021/04/20 12:22:54;;;;;;;14.02;10.88;;;22.00;62.40;;;;;;5090612;28;20203;-59
2021/04/20 12:25:21;;;;;;;12.25;10.95;;;22.20;61.90;;;;;;5090585;28;20208;-59
2021/04/20 12:27:51;;;;;;;12.27;10.00;;;22.30;61.50;;;;;;5090160;28;20215;-60
2021/04/20 12:30:20;;;;;;;13.15;11.60;;;22.50;60.60;;;;;;5091224;28;20586;-59
2021/04/20 12:32:47;;;;;;;11.90;10.63;;;22.60;60.80;;;;;;5090831;28;20805;-60
2021/04/20 12:35:14;;;;;;;12.82;11.30;;;22.60;60.20;;;;;;5090708;28;20208;-60
2021/04/20 12:37:41;;;;;;;12.55;11.30;;;22.50;60.10;;;;;;5090668;28;20585;-59
2021/04/20 12:40:10;;;;;;;12.90;10.38;;;22.50;60.10;;;;;;5090516;28;20657;-59
2021/04/20 12:42:40;;;;;;;11.63;10.30;;;22.40;60.10;;;;;;5090693;28;20208;-59
2021/04/20 12:45:10;;;;;;;11.77;10.57;;;22.20;59.80;;;;;;5090686;28;20212;-60
2021/04/20 12:47:37;;;;;;;12.35;9.95;;;22.10;60.20;;;;;;5090866;28;20257;-60